CANAVERAL EAST 120NM East of Cape Canaveral (41010)

Conditions for Tuesday

Daily
Weekly
Monthly
Marine Data Graph

Marine & Boating Location Search

Enter a coastal zip code for marine weather.

General Information

Location: 28.903 North -78.464 West
Buoy Type: 3-meter discus buoy
Buoy Hull: 3D26
Payload: ARES payload
Owned by: NDBC
Windspeed: Measured by obtained from anemometer
Sea Surface: Measured by Intake

Weather and Wave Data

Time Temp Humidity Wind Dominant Wave Wind Wave Wave Swell Pressure
  Air
(°F)
Water
(°F)
  Dir Speed
(kts)
Speed
(mph)
Period
(sec)
Height
(ft)
Range
(ft)
Period
(sec)
Height
(ft)
Range
(ft)
Period
(sec)
Height
(ft)
Range
(ft)
Atmo.
(in)
Tend.
(in)
20:10 85 87 66 East 11.7 13.4 - - - - - - 30.07 -
20:20 85 86 65 East 11.7 13.4 - - - - - - 30.08 -
20:40 85 86 67 ESE 11.7 13.4 - - - - - - 30.09 -
20:50 85 86 67 ESE 11.7 13.4 7 2.30 exactly 2.3 4 1.64 0.82 - 2.46 7 1.64 0.82 - 2.46 30.09 -
21:10 85 86 68 ESE 11.7 13.4 - - - - - - 30.09 -
21:20 85 86 67 ESE 11.7 13.4 - - - - - - 30.10 -
21:30 85 86 71 ESE 11.7 13.4 - - - - - - 30.10 -
21:40 84 86 72 ESE 11.7 13.4 - - - - - - 30.10 -
21:50 84 86 71 ESE 11.7 13.4 7 2.30 exactly 2.3 3 1.64 0.82 - 2.46 7 1.64 0.82 - 2.46 30.11 -
22:00 85 86 68 ESE 9.7 11.2 - - - - - - 30.11 +0.05
22:10 85 86 68 ESE 9.7 11.2 - - - - - - 30.12 -
22:30 85 86 66 ESE 9.7 11.2 - - - - - - 30.12 -
22:40 85 86 65 ESE 9.7 11.2 - - - - - - 30.12 -
22:50 85 86 65 ESE 9.7 11.2 7 2.62 exactly 2.6 4 1.64 0.82 - 2.46 7 1.64 0.82 - 2.46 30.12 -
23:00 85 86 66 ESE 9.7 11.2 - - - - - - 30.13 +0.06
23:30 85 86 66 ESE 7.8 8.9 - - - - - - 30.14 -
23:40 85 86 66 ESE 9.7 11.2 - - - - - - 30.13 -
23:50 85 86 66 ESE 7.8 8.9 8 2.62 exactly 2.6 4 1.64 0.82 - 2.46 8 1.64 0.82 - 2.46 30.13 -
00:00 85 86 68 ESE 7.8 8.9 - - - - - - 30.13 +0.04
00:10 85 86 67 ESE 7.8 8.9 - - - - - - 30.13 -
00:20 85 86 68 ESE 7.8 8.9 - - - - - - 30.14 -
00:30 85 86 68 ESE 9.7 11.2 - - - - - - 30.13 -
00:40 85 86 67 ESE 9.7 11.2 - - - - - - 30.13 -
01:10 85 86 65 SE 7.8 8.9 - - - - - - 30.13 -
01:30 85 86 66 ESE 9.7 11.2 - - - - - - 30.13 -
01:40 85 86 67 ESE 9.7 11.2 - - - - - - 30.12 -
01:50 84 86 69 ESE 9.7 11.2 6 2.62 exactly 2.6 3 1.64 0.82 - 2.46 6 1.64 0.82 - 2.46 30.12 -
02:00 84 86 70 ESE 9.7 11.2 - - - - - - 30.12 -0.01
02:20 84 86 69 SE 7.8 8.9 - - - - - - 30.11 -
02:30 84 86 71 SE 7.8 8.9 - - - - - - 30.11 -
02:40 84 86 70 SE 5.8 6.7 - - - - - - 30.10 -
02:50 84 86 69 ESE 7.8 8.9 8 2.30 exactly 2.3 4 1.64 0.82 - 2.46 8 1.64 0.82 - 2.46 30.10 -
03:00 84 86 70 ESE 7.8 8.9 - - - - - - 30.10 -0.03
03:20 84 86 71 ESE 7.8 8.9 - - - - - - 30.11 -
03:30 84 86 70 ESE 7.8 8.9 - - - - - - 30.11 -
03:50 84 86 70 ESE 7.8 8.9 6 2.62 exactly 2.6 4 1.64 0.82 - 2.46 6 1.64 0.82 - 2.46 30.10 -
04:20 84 86 65 SE 7.8 8.9 - - - - - - 30.09 -
04:30 84 86 67 ESE 5.8 6.7 - - - - - - 30.09 -
04:40 84 86 67 ESE 5.8 6.7 - - - - - - 30.09 -
05:10 84
-
68 SE 5.8 6.7 - - - - - - 30.09 -
05:30 84 86 67 ESE 5.8 6.7 - - - - - - 30.10 -
05:40 84 86 66 ESE 5.8 6.7 - - - - - - 30.10 -
05:50 84 86 68 SSE 5.8 6.7 7 2.30 exactly 2.3 3 1.64 0.82 - 2.46 7 1.64 0.82 - 2.46 30.10 -
06:00 84 86 68 SE 5.8 6.7 - - - - - - 30.10 -
06:10 84 86 65 ESE 5.8 6.7 - - - - - - 30.10 -
06:20 84 86 65 ESE 5.8 6.7 - - - - - - 30.10 -
06:30 84 86 65 ESE 7.8 8.9 - - - - - - 30.10 -
06:40 84 86 65 ESE 7.8 8.9 - - - - - - 30.11 -
07:10 84 86 65 SE 7.8 8.9 - - - - - - 30.12 -
07:20 85 86 63 SE 7.8 8.9 - - - - - - 30.12 -
07:30 84 86 66 ESE 7.8 8.9 - - - - - - 30.12 -
07:40 84 86 67 ESE 5.8 6.7 - - - - - - 30.13 -
07:50 84 86 67 ESE 7.8 8.9 7 2.30 exactly 2.3 4 1.64 0.82 - 2.46 7 1.64 0.82 - 2.46 30.13 -
08:20 85 86 64 SE 9.7 11.2 - - - - - - 30.14 -
08:30 85 86 64 SE 7.8 8.9 - - - - - - 30.14 -
08:40 85 86 64 SE 9.7 11.2 - - - - - - 30.14 -
08:50 85 86 65 SE 7.8 8.9 8 2.30 exactly 2.3 4 1.64 0.82 - 2.46 8 1.64 0.82 - 2.46 30.15 -
09:00 85 86 65 SE 7.8 8.9 - - - - - - 30.15 +0.05
09:10 85 86 64 SE 7.8 8.9 - - - - - - 30.15 -
09:20 85 86 65 SE 9.7 11.2 - - - - - - 30.15 -
09:40 85 86 64 SE 7.8 8.9 - - - - - - 30.15 -
09:50 85 86 63 SE 7.8 8.9 8 1.97 exactly 2.0 4 1.64 0.82 - 2.46 8 1.64 0.82 - 2.46 30.15 -
10:20 85 86 63 SE 7.8 8.9 - - - - - - 30.16 -
10:30 85 86 63 SE 7.8 8.9 - - - - - - 30.16 -
10:50 85 86 63 SE 7.8 8.9 - - - - - - 30.16 -
11:00 85 86 63 SE 7.8 8.9 - - - - - - 30.16 +0.03
11:10 85 86 63 SE 7.8 8.9 - - - - - - 30.17 -
11:30 85 86 65 SE 7.8 8.9 - - - - - - 30.17 -
11:40 85
-
64 SSE 7.8 8.9 - - - - - - 30.16 -
11:50 85 86 62 SSE 7.8 8.9 7 1.97 exactly 2.0 3 1.64 0.82 - 2.46 7 1.64 0.82 - 2.46 30.17 -
12:10 85 86 64 SSE 7.8 8.9 - - - - - - 30.16 -
12:30 85 86 64 SSE 7.8 8.9 - - - - - - 30.16 -
12:40 85 86 65 SE 7.8 8.9 - - - - - - 30.15 -
12:50 85 86 66 SE 7.8 8.9 6 2.30 exactly 2.3 4 1.64 0.82 - 2.46 6 1.64 0.82 - 2.46 30.15 -
13:00 85 86 66 SE 7.8 8.9 - - - - - - 30.15 -0.01
13:10 85 86 65 SE 7.8 8.9 - - - - - - 30.15 -
13:50 85 87 65 SSE 7.8 8.9 - - - - - - 30.14 -
14:00 85 87 64 SSE 7.8 8.9 - - - - - - 30.14 -0.03
14:10 85 87 65 SE 7.8 8.9 - - - - - - 30.14 -
14:20 85 87 67 SE 5.8 6.7 - - - - - - 30.13 -
14:30 85 87 67 SE 5.8 6.7 - - - - - - 30.13 -
14:40 85 87 65 SE 7.8 8.9 - - - - - - 30.13 -
14:50 85 87 66 SE 7.8 8.9 - - - - - - 30.13 -
15:20 85 87 66 SSE 7.8 8.9 - - - - - - 30.12 -
15:30 85 87 65 SSE 7.8 8.9 - - - - - - 30.12 -
15:40 85 87 64 SSE 5.8 6.7 - - - - - - 30.12 -
15:50 85 87 64 SE 5.8 6.7 8 1.97 exactly 2.0 4 1.64 0.82 - 2.46 8 1.64 0.82 - 2.46 30.12 -
16:00 84 87 63 NE 5.8 6.7 - - - - - - 30.12 -0.03
16:10 83 87 64 NNE 9.7 11.2 - - - - - - 30.12 -
16:40 81 87 65 NNE 7.8 8.9 - - - - - - 30.11 -
16:50 82 87 60 North 5.8 6.7 10 2.30 exactly 2.3 4 1.64 0.82 - 2.46 10 1.64 0.82 - 2.46 30.11 -
17:00 84 87 58 NNE 3.9 4.5 - - - - - - 30.11 -0.03
17:10 85 87 59 NNE 1.9 2.2 - - - - - - 30.11 -
17:20 85 87 61 North 1.9 2.2 - - - - - - 30.11 -
17:30 85 87 61 NNE 1.9 2.2 - - - - - - 30.11 -
17:50 85 87 64 NNE 3.9 4.5 8 2.30 exactly 2.3 4 1.64 0.82 - 2.46 8 1.64 0.82 - 2.46 30.11 -
18:10 85 87 65 ENE 3.9 4.5 - - - - - - 30.11 -
18:20 85 87 66 East 7.8 8.9 - - - - - - 30.11 -
18:30 85 87 65 East 7.8 8.9 - - - - - - 30.11 -
18:40 85 87 63 East 7.8 8.9 - - - - - - 30.11 -
18:50 85 87 63 East 7.8 8.9 8 2.30 exactly 2.3 4 1.64 0.82 - 2.46 8 1.64 0.82 - 2.46 30.11 -
19:00 85 87 63 East 9.7 11.2 - - - - - - 30.11 -
19:20 85 87 66 East 7.8 8.9 - - - - - - 30.12 -
19:30 85 87 65 East 7.8 8.9 - - - - - - 30.12 -
19:40 85 87 66 East 7.8 8.9 - - - - - - 30.12 -
19:50 85 87 65 East 7.8 8.9 7 2.30 exactly 2.3 3 1.64 0.82 - 2.46 7 1.64 0.82 - 2.46 30.12 -
20:00 85 87 66 East 7.8 8.9 - - - - - - 30.12 +0.01
20:10 85 87 66 ESE 9.7 11.2 - - - - - - 30.12 -
20:30 85 87 67 ESE 7.8 8.9 - - - - - - 30.13 -
20:40 85 87 66 ESE 7.8 8.9 - - - - - - 30.13 -
20:50 85 87 66 ESE 7.8 8.9 8 1.97 exactly 2.0 4 1.64 0.82 - 2.46 8 1.64 0.82 - 2.46 30.14 -
21:00 85 87 65 ESE 9.7 11.2 - - - - - - 30.14 +0.03
21:10 85 87 65 ESE 9.7 11.2 - - - - - - 30.14 -
21:20 85 87 66 ESE 9.7 11.2 - - - - - - 30.14 -
21:30 85 87 65 ESE 9.7 11.2 - - - - - - 30.15 -
21:40 85 86 64 ESE 11.7 13.4 - - - - - - 30.15 -
22:00 85 86 63 East 7.8 8.9 - - - - - - 30.15 +0.04
22:10 85 86 62 ESE 7.8 8.9 - - - - - - 30.15 -
22:20 84 86 68 SE 11.7 13.4 - - - - - - 30.15 -
22:30 84 86 64 SSE 11.7 13.4 - - - - - - 30.16 -
22:40 84 86 65 SE 11.7 13.4 - - - - - - 30.15 -
22:50 83 86 67 SE 13.6 15.7 8 2.30 exactly 2.3 5 1.64 0.82 - 2.46 8 1.64 0.82 - 2.46 30.16 -
23:10 83 86 71 SE 13.6 15.7 - - - - - - 30.14 -
23:20 83 86 69 SE 11.7 13.4 - - - - - - 30.14 -
23:40 84 86 62 SE 9.7 11.2 - - - - - - 30.14 -
23:50 84 86 58 SE 9.7 11.2 9 2.30 exactly 2.3 3 1.64 0.82 - 2.46 9 1.64 0.82 - 2.46 30.14 -
00:20 84 86 60 SE 7.8 8.9 - - - - - - 30.13 -
00:30 84 86 61 ESE 7.8 8.9 - - - - - - 30.13 -
00:40 84 86 60 SE 5.8 6.7 - - - - - - 30.12 -
00:50 84 86 59 ESE 5.8 6.7 10 2.30 exactly 2.3 4 1.64 0.82 - 2.46 10 1.64 0.82 - 2.46 30.12 -
01:10 84 86 61 East 3.9 4.5 - - - - - - 30.11 -
01:40 83 86 68 SE 3.9 4.5 - - - - - - 30.11 -
02:10 83 86 70 ESE 7.8 8.9 - - - - - - 30.11 -
02:30 83 86 69 ESE 7.8 8.9 - - - - - - 30.11 -
02:40 83 86 70 ESE 9.7 11.2 - - - - - - 30.11 -
02:50 83 86 70 ESE 9.7 11.2 11 2.30 exactly 2.3 5 1.64 0.82 - 2.46 11 1.64 0.82 - 2.46 30.11 -
03:00 83 86 70 SE 9.7 11.2 - - - - - - 30.10 -0.04
03:20 83 86 71 SE 7.8 8.9 - - - - - - 30.09 -
03:40 86
-
- 11 2.30 exactly 2.3 4 1.64 0.82 - 2.46 11 1.64 0.82 - 2.46
-
-
03:50 83
-
70 SE 7.8 8.9 - - - - - - 30.10 -

Detailed Wave Spectra

Time Water Depth Wave Height Spectral Peak Period Average Wave Period Sampling Interval Wave Record
20:00 2920 ft 2.07 ft 8.3 sec 4.2 sec 0.6 sec 2400 sec
21:00 2920 ft 2.26 ft 7.1 sec 4.4 sec 0.6 sec 2400 sec
01:00 2920 ft 2.49 ft 7.7 sec 4.5 sec 0.6 sec 2400 sec
05:00 2920 ft 2.30 ft 5.9 sec 4.6 sec 0.6 sec 2400 sec
07:00 2920 ft 2.33 ft 7.7 sec 4.9 sec 0.6 sec 2400 sec
10:00 2920 ft 2.13 ft 7.7 sec 4.9 sec 0.6 sec 2400 sec
12:00 2920 ft 2.07 ft 7.1 sec 4.9 sec 0.6 sec 2400 sec
18:00 2920 ft 2.20 ft 7.7 sec 5.1 sec 0.6 sec 2400 sec
23:00 2920 ft 2.30 ft 7.7 sec 4.6 sec 0.6 sec 2400 sec
00:00 2920 ft 2.36 ft 9.1 sec 4.3 sec 0.6 sec 2400 sec
01:00 2920 ft 2.33 ft 10.0 sec 4.5 sec 0.6 sec 2400 sec
02:00 2920 ft 2.30 ft 7.1 sec 4.8 sec 0.6 sec 2400 sec